createdAt,value
2022-09-30T00:01:17.750Z,88.64
2022-09-30T00:03:48.252Z,87.87
2022-09-30T00:06:16.880Z,88.58
2022-09-30T00:08:44.947Z,87.79
2022-09-30T00:11:16.390Z,88.34
2022-09-30T00:13:45.830Z,87.65
2022-09-30T00:16:15.754Z,88.07
2022-09-30T00:18:44.660Z,87.57
2022-09-30T00:21:13.684Z,87.47
2022-09-30T00:23:41.708Z,88.15
2022-09-30T00:26:13.034Z,87.89
2022-09-30T00:28:43.891Z,87.41
2022-09-30T00:31:14.873Z,88.30
2022-09-30T00:33:43.328Z,87.98
2022-09-30T00:36:12.142Z,87.81
2022-09-30T00:38:40.114Z,87.61
2022-09-30T00:41:08.157Z,87.77
2022-09-30T00:43:43.312Z,87.61
2022-09-30T00:46:18.557Z,88.07
2022-09-30T00:48:47.503Z,88.20
2022-09-30T00:51:15.460Z,88.29
2022-09-30T00:54:10.340Z,88.57
2022-09-30T00:56:40.986Z,87.89
2022-09-30T00:59:13.505Z,88.41
2022-09-30T01:01:42.622Z,88.43
2022-09-30T01:04:13.232Z,88.52
2022-09-30T01:06:41.505Z,88.68
2022-09-30T01:09:09.968Z,88.79
2022-09-30T01:11:38.116Z,88.13
2022-09-30T01:14:07.787Z,87.88
2022-09-30T01:16:55.696Z,88.38
2022-09-30T01:19:48.848Z,87.74
2022-09-30T01:22:23.353Z,87.86
2022-09-30T01:25:33.897Z,87.92
2022-09-30T01:28:15.009Z,88.34
2022-09-30T01:30:56.764Z,88.57
2022-09-30T01:33:34.943Z,88.25
2022-09-30T01:36:28.623Z,88.07
2022-09-30T01:39:05.788Z,88.13
2022-09-30T01:41:42.317Z,87.70
2022-09-30T01:44:15.640Z,88.58
2022-09-30T01:46:47.708Z,88.49
2022-09-30T01:49:22.284Z,88.59
2022-09-30T01:51:57.066Z,88.12
2022-09-30T01:54:28.900Z,88.42
2022-09-30T01:57:00.232Z,88.47
2022-09-30T01:59:32.750Z,88.88
2022-09-30T02:02:08.305Z,88.76
2022-09-30T02:04:40.389Z,89.19
2022-09-30T02:07:12.284Z,88.94
2022-09-30T02:09:42.757Z,88.61
2022-09-30T02:12:15.116Z,88.87
2022-09-30T02:14:45.725Z,89.00
2022-09-30T02:17:24.544Z,89.15
2022-09-30T02:19:55.832Z,88.78
2022-09-30T02:22:27.200Z,88.61
2022-09-30T02:24:59.051Z,88.97
2022-09-30T02:27:30.421Z,88.69
2022-09-30T02:30:00.869Z,89.00
2022-09-30T02:32:32.964Z,88.42
2022-09-30T02:35:05.315Z,88.85
2022-09-30T02:37:35.877Z,88.24
2022-09-30T02:40:08.101Z,88.27
2022-09-30T02:42:36.132Z,88.93
2022-09-30T02:45:08.685Z,88.32
2022-09-30T02:47:47.280Z,88.44
2022-09-30T02:50:19.718Z,88.59
2022-09-30T02:52:54.713Z,88.95
2022-09-30T02:55:29.430Z,88.64
2022-09-30T02:58:01.401Z,88.82
2022-09-30T03:00:30.281Z,88.67
2022-09-30T03:03:01.137Z,88.04
2022-09-30T03:05:29.394Z,88.10
2022-09-30T03:07:57.770Z,88.30
2022-09-30T03:10:26.079Z,88.62
2022-09-30T03:13:07.231Z,88.47
2022-09-30T03:15:43.168Z,88.77
2022-09-30T03:18:24.733Z,88.31
2022-09-30T03:21:01.878Z,88.53
2022-09-30T03:23:43.931Z,88.63
2022-09-30T03:26:19.321Z,88.08
2022-09-30T03:28:54.343Z,88.38
2022-09-30T03:31:27.486Z,88.20
2022-09-30T03:34:01.424Z,88.69
2022-09-30T03:36:35.440Z,87.99
2022-09-30T03:39:09.289Z,88.81
2022-09-30T03:41:41.412Z,88.96
2022-09-30T03:44:12.981Z,88.91
2022-09-30T03:46:43.862Z,88.69
2022-09-30T03:49:15.688Z,88.44
2022-09-30T03:51:43.814Z,88.08
2022-09-30T03:54:13.653Z,88.20
2022-09-30T03:56:43.312Z,88.78
2022-09-30T03:59:13.516Z,89.14
2022-09-30T04:01:41.616Z,88.50
2022-09-30T04:04:09.877Z,88.61
2022-09-30T04:06:39.260Z,89.87
2022-09-30T04:09:07.306Z,88.89
2022-09-30T04:11:35.405Z,89.40
2022-09-30T04:14:03.798Z,89.05
2022-09-30T04:16:32.089Z,88.81
2022-09-30T04:19:00.384Z,88.98
2022-09-30T04:21:29.079Z,89.12
2022-09-30T04:23:58.519Z,88.84
2022-09-30T04:26:26.548Z,88.43
2022-09-30T04:28:58.145Z,88.71
2022-09-30T04:31:26.519Z,88.29
2022-09-30T04:33:57.006Z,88.22
2022-09-30T04:36:25.087Z,88.68
2022-09-30T04:38:53.574Z,87.90
2022-09-30T04:41:23.205Z,88.36
2022-09-30T04:43:51.215Z,87.84
2022-09-30T04:46:20.969Z,88.33
2022-09-30T04:48:48.997Z,88.27
2022-09-30T04:51:18.850Z,88.20
2022-09-30T04:53:47.757Z,89.03
2022-09-30T04:56:16.759Z,89.11
2022-09-30T04:58:46.854Z,88.10
2022-09-30T05:01:16.251Z,88.13
2022-09-30T05:03:44.828Z,88.32
2022-09-30T05:06:13.212Z,87.67
2022-09-30T05:08:45.692Z,88.56
2022-09-30T05:11:16.573Z,87.58
2022-09-30T05:13:46.474Z,88.02
2022-09-30T05:16:15.922Z,87.59
2022-09-30T05:18:46.228Z,88.12
2022-09-30T05:21:15.349Z,87.44
2022-09-30T05:23:43.541Z,87.74
2022-09-30T05:26:12.784Z,88.58
2022-09-30T05:28:41.183Z,88.71
2022-09-30T05:31:12.329Z,87.99
2022-09-30T05:33:41.811Z,87.88
2022-09-30T05:36:13.602Z,88.38
2022-09-30T05:38:41.838Z,87.87
2022-09-30T05:41:11.474Z,87.98
2022-09-30T05:43:40.417Z,88.36
2022-09-30T05:46:10.196Z,88.71
2022-09-30T05:48:38.198Z,88.43
2022-09-30T05:51:07.531Z,88.25
2022-09-30T05:53:38.682Z,88.27
2022-09-30T05:56:07.423Z,88.70
2022-09-30T05:58:35.582Z,88.38
2022-09-30T06:01:12.917Z,88.99
2022-09-30T06:03:42.968Z,89.40
2022-09-30T06:06:11.483Z,89.07
2022-09-30T06:08:40.333Z,88.85
2022-09-30T06:11:12.762Z,89.18
2022-09-30T06:13:41.523Z,88.47
2022-09-30T06:16:10.447Z,88.15
2022-09-30T06:18:41.131Z,88.86
2022-09-30T06:21:12.538Z,88.89
2022-09-30T06:24:09.389Z,88.97
2022-09-30T06:26:37.375Z,88.73
2022-09-30T06:29:05.404Z,89.23
2022-09-30T06:31:33.507Z,89.43
2022-09-30T06:34:02.346Z,88.99
2022-09-30T06:36:33.391Z,88.95
2022-09-30T06:39:01.960Z,88.81
2022-09-30T06:41:30.059Z,89.35
2022-09-30T06:44:02.526Z,88.37
2022-09-30T06:46:32.215Z,89.09
2022-09-30T06:49:11.264Z,88.99
2022-09-30T06:51:42.043Z,89.67
2022-09-30T06:54:10.334Z,89.08
2022-09-30T06:56:38.341Z,89.11
2022-09-30T06:59:07.108Z,88.54
2022-09-30T07:01:35.209Z,88.61
2022-09-30T07:04:09.335Z,88.40
2022-09-30T07:06:38.869Z,88.20
2022-09-30T07:09:09.247Z,89.24
2022-09-30T07:11:38.312Z,89.04
2022-09-30T07:14:06.525Z,88.71
2022-09-30T07:16:34.977Z,89.09
2022-09-30T07:19:03.317Z,88.67
2022-09-30T07:21:32.405Z,88.48
2022-09-30T07:24:01.120Z,88.24
2022-09-30T07:26:31.114Z,88.35
2022-09-30T07:29:00.099Z,88.13
2022-09-30T07:31:32.904Z,88.20
2022-09-30T07:34:02.036Z,88.14
2022-09-30T07:36:33.635Z,87.94
2022-09-30T07:39:05.848Z,87.94
2022-09-30T07:41:38.130Z,88.45
2022-09-30T07:44:06.802Z,88.02
2022-09-30T07:46:38.708Z,88.35
2022-09-30T07:49:09.037Z,87.98
2022-09-30T07:51:38.881Z,87.90
2022-09-30T07:54:08.813Z,87.86
2022-09-30T07:59:28.193Z,87.66
2022-09-30T08:01:56.435Z,87.22
2022-09-30T08:04:25.989Z,87.73
2022-09-30T08:06:55.911Z,87.88
2022-09-30T08:09:26.962Z,87.74
2022-09-30T08:11:57.125Z,87.80
2022-09-30T08:14:26.415Z,87.44
2022-09-30T08:16:55.862Z,87.24
2022-09-30T08:19:25.354Z,87.09
2022-09-30T08:21:54.287Z,87.29
2022-09-30T08:24:23.192Z,87.18
2022-09-30T08:26:51.378Z,87.33
2022-09-30T08:29:35.773Z,87.16
2022-09-30T08:32:09.039Z,86.91
2022-09-30T08:34:37.186Z,86.83
2022-09-30T08:37:09.219Z,86.71
2022-09-30T08:39:37.883Z,86.40
2022-09-30T08:42:35.977Z,86.28
2022-09-30T08:45:13.401Z,85.91
2022-09-30T08:47:45.227Z,85.53
2022-09-30T08:50:17.816Z,85.99
2022-09-30T08:52:49.583Z,85.69
2022-09-30T08:55:23.338Z,85.37
2022-09-30T08:57:52.004Z,85.21
2022-09-30T09:00:22.524Z,85.10
2022-09-30T09:02:53.776Z,84.93
2022-09-30T09:05:32.075Z,85.10
2022-09-30T09:08:04.127Z,85.43
2022-09-30T09:10:39.197Z,85.29
2022-09-30T09:13:14.417Z,84.85
2022-09-30T09:15:51.985Z,84.55
2022-09-30T09:18:29.988Z,83.38
2022-09-30T09:21:00.401Z,84.96
2022-09-30T09:23:31.264Z,84.05
2022-09-30T09:26:00.136Z,83.59
2022-09-30T09:28:36.961Z,83.18
2022-09-30T09:31:06.987Z,82.50
2022-09-30T09:33:37.406Z,82.29
2022-09-30T09:36:12.883Z,78.91
2022-09-30T09:38:52.118Z,80.32
2022-09-30T09:41:27.146Z,80.08
2022-09-30T09:44:00.476Z,80.04
2022-09-30T09:46:32.214Z,79.44
2022-09-30T09:49:30.122Z,78.14
2022-09-30T09:52:31.336Z,78.55
2022-09-30T09:55:00.883Z,78.04
2022-09-30T09:57:32.475Z,78.51
2022-09-30T10:00:22.526Z,78.18
2022-09-30T10:03:03.853Z,78.45
2022-09-30T10:05:39.411Z,78.57
2022-09-30T10:08:13.274Z,77.18
2022-09-30T10:10:49.642Z,75.81
2022-09-30T10:13:19.352Z,76.53
2022-09-30T10:15:47.908Z,76.68
2022-09-30T10:18:22.663Z,77.11
2022-09-30T10:20:53.602Z,77.58
2022-09-30T10:23:23.524Z,73.18
2022-09-30T10:25:59.969Z,73.51
2022-09-30T10:28:30.189Z,75.45
2022-09-30T10:31:08.907Z,76.08
2022-09-30T10:33:44.997Z,73.56
2022-09-30T10:36:16.406Z,74.96
2022-09-30T10:38:50.658Z,74.38
2022-09-30T10:41:24.292Z,75.07
2022-09-30T10:43:54.293Z,73.98
2022-09-30T10:46:27.259Z,73.88
2022-09-30T10:48:58.934Z,73.73
2022-09-30T10:51:34.015Z,73.95
2022-09-30T10:54:02.413Z,73.82
2022-09-30T10:56:44.627Z,73.08
2022-09-30T10:59:24.134Z,73.59
2022-09-30T11:01:57.607Z,73.37
2022-09-30T11:04:33.619Z,74.15
2022-09-30T11:07:11.379Z,73.55
2022-09-30T11:09:45.917Z,73.32
2022-09-30T11:12:20.303Z,70.10
2022-09-30T11:14:54.720Z,70.11
2022-09-30T11:17:33.669Z,70.47
2022-09-30T11:20:12.909Z,71.60
2022-09-30T11:22:47.008Z,71.49
2022-09-30T11:25:16.149Z,70.34
2022-09-30T11:27:59.481Z,69.24
2022-09-30T11:30:32.551Z,69.91
2022-09-30T11:33:15.873Z,64.45
2022-09-30T11:35:52.810Z,66.87
2022-09-30T11:38:32.195Z,65.08
2022-09-30T11:41:06.386Z,66.32
2022-09-30T11:43:41.528Z,64.57
2022-09-30T11:46:30.678Z,64.35
2022-09-30T11:49:14.385Z,64.45
2022-09-30T11:51:49.649Z,63.77
2022-09-30T11:54:28.562Z,66.06
2022-09-30T11:57:02.012Z,64.47
2022-09-30T11:59:35.266Z,65.82
2022-09-30T12:02:05.431Z,66.41
2022-09-30T12:04:37.054Z,66.64
2022-09-30T12:07:12.583Z,66.93
2022-09-30T12:09:44.269Z,65.82
2022-09-30T12:12:16.710Z,65.14
2022-09-30T12:14:47.936Z,63.50
2022-09-30T12:17:21.473Z,65.04
2022-09-30T12:19:52.067Z,63.53
2022-09-30T12:22:26.137Z,64.62
2022-09-30T12:24:54.164Z,64.63
2022-09-30T12:27:25.782Z,65.13
2022-09-30T12:30:17.182Z,62.06
2022-09-30T12:33:16.522Z,61.97
2022-09-30T12:36:10.976Z,64.18
2022-09-30T12:38:54.841Z,64.46
2022-09-30T12:41:35.376Z,64.10
2022-09-30T12:44:29.628Z,60.60
2022-09-30T12:47:11.649Z,63.33
2022-09-30T12:49:41.179Z,63.13
2022-09-30T12:52:14.592Z,64.30
2022-09-30T12:54:48.854Z,64.73
2022-09-30T12:57:20.780Z,63.03
2022-09-30T12:59:52.643Z,64.52
2022-09-30T13:02:30.250Z,64.40
2022-09-30T13:05:44.704Z,63.34
2022-09-30T13:08:25.950Z,62.50
2022-09-30T13:10:59.211Z,63.77
2022-09-30T13:13:30.586Z,62.51
2022-09-30T13:16:03.292Z,62.36
2022-09-30T13:18:59.755Z,63.78
2022-09-30T13:21:27.753Z,63.73
2022-09-30T13:23:56.954Z,64.66
2022-09-30T13:26:38.597Z,62.55
2022-09-30T13:29:29.994Z,64.52
2022-09-30T13:32:05.599Z,65.22
2022-09-30T13:34:36.464Z,63.85
2022-09-30T13:37:05.706Z,63.32
2022-09-30T13:39:45.612Z,65.18
2022-09-30T13:42:22.121Z,63.37
2022-09-30T13:45:00.839Z,64.13
2022-09-30T13:47:31.669Z,65.31
2022-09-30T13:50:03.232Z,63.91
2022-09-30T13:52:34.223Z,63.56
2022-09-30T13:55:07.932Z,64.97
2022-09-30T13:57:43.645Z,64.23
2022-09-30T14:00:15.186Z,65.14
2022-09-30T14:03:08.598Z,64.61
2022-09-30T14:05:54.095Z,64.75
2022-09-30T14:08:56.486Z,65.75
2022-09-30T14:11:41.191Z,65.51
2022-09-30T14:14:26.943Z,65.74
2022-09-30T14:17:30.114Z,64.88
2022-09-30T14:20:12.215Z,65.71
2022-09-30T14:22:41.910Z,65.57
2022-09-30T14:25:14.827Z,66.06
2022-09-30T14:28:04.408Z,66.09
2022-09-30T14:30:39.565Z,64.65
2022-09-30T14:33:11.657Z,66.12
2022-09-30T14:35:41.584Z,64.74
2022-09-30T14:38:15.784Z,66.03
2022-09-30T14:40:51.022Z,65.64
2022-09-30T14:43:44.708Z,65.43
2022-09-30T14:46:27.793Z,65.45
2022-09-30T14:48:58.958Z,65.48
2022-09-30T14:51:27.471Z,66.97
2022-09-30T14:53:56.936Z,65.93
2022-09-30T14:56:30.810Z,66.50
2022-09-30T14:59:00.934Z,65.80
2022-09-30T15:01:34.546Z,65.73
2022-09-30T15:04:04.730Z,65.12
2022-09-30T15:06:35.290Z,65.97
2022-09-30T15:09:06.482Z,66.33
2022-09-30T15:11:39.512Z,66.59
2022-09-30T15:14:10.220Z,66.05
2022-09-30T15:17:05.154Z,66.18
2022-09-30T15:19:35.338Z,67.21
2022-09-30T15:22:05.234Z,66.97
2022-09-30T15:24:33.905Z,67.57
2022-09-30T15:27:02.859Z,68.01
2022-09-30T15:29:31.035Z,66.67
2022-09-30T15:32:03.155Z,65.87
2022-09-30T15:34:31.775Z,66.27
2022-09-30T15:37:06.358Z,67.01
2022-09-30T15:39:54.470Z,66.93
2022-09-30T15:42:36.181Z,65.81
2022-09-30T15:45:06.443Z,65.43
2022-09-30T15:47:54.496Z,65.24
2022-09-30T15:50:37.582Z,65.07
2022-09-30T15:53:06.219Z,65.27
2022-09-30T15:55:43.153Z,65.38
2022-09-30T15:58:33.724Z,66.24
2022-09-30T16:01:26.834Z,64.78
2022-09-30T16:04:44.704Z,66.16
2022-09-30T16:07:18.025Z,66.47
2022-09-30T16:09:48.870Z,66.93
2022-09-30T16:12:19.661Z,66.82
2022-09-30T16:14:50.033Z,66.41
2022-09-30T16:17:19.982Z,67.33
2022-09-30T16:19:52.126Z,68.15
2022-09-30T16:22:52.485Z,68.78
2022-09-30T16:25:23.441Z,68.26
2022-09-30T16:27:57.783Z,68.76
2022-09-30T16:30:26.287Z,68.83
2022-09-30T16:32:58.177Z,68.93
2022-09-30T16:35:28.164Z,69.28
2022-09-30T16:38:02.413Z,68.91
2022-09-30T16:40:32.467Z,68.63
2022-09-30T16:43:03.252Z,68.93
2022-09-30T16:45:33.886Z,68.67
2022-09-30T16:48:02.991Z,68.63
2022-09-30T16:50:35.007Z,69.21
2022-09-30T16:53:04.410Z,69.17
2022-09-30T16:55:32.870Z,69.48
2022-09-30T16:58:00.939Z,70.37
2022-09-30T17:00:29.944Z,70.61
2022-09-30T17:02:58.096Z,70.54
2022-09-30T17:05:27.619Z,70.76
2022-09-30T17:07:57.071Z,70.70
2022-09-30T17:10:29.113Z,70.86
2022-09-30T17:12:57.578Z,71.02
2022-09-30T17:15:25.667Z,70.73
2022-09-30T17:17:54.041Z,71.17
2022-09-30T17:20:23.285Z,70.66
2022-09-30T17:22:51.807Z,71.54
2022-09-30T17:25:20.163Z,71.44
2022-09-30T17:27:51.061Z,71.41
2022-09-30T17:30:19.625Z,71.48
2022-09-30T17:32:47.982Z,71.94
2022-09-30T17:35:16.780Z,72.29
2022-09-30T17:37:46.534Z,72.26
2022-09-30T17:40:32.882Z,72.69
2022-09-30T17:43:14.160Z,72.81
2022-09-30T17:45:44.499Z,73.07
2022-09-30T17:48:13.530Z,72.71
2022-09-30T17:50:44.264Z,73.29
2022-09-30T17:53:14.186Z,73.83
2022-09-30T17:55:42.278Z,73.84
2022-09-30T17:58:12.387Z,74.01
2022-09-30T18:00:40.460Z,74.40
2022-09-30T18:03:08.846Z,74.35
2022-09-30T18:05:37.206Z,74.31
2022-09-30T18:08:05.642Z,74.65
2022-09-30T18:10:33.737Z,74.68
2022-09-30T18:13:01.704Z,75.02
2022-09-30T18:15:31.185Z,75.30
2022-09-30T18:17:59.200Z,75.60
2022-09-30T18:20:27.213Z,75.83
2022-09-30T18:22:55.213Z,76.06
2022-09-30T18:25:23.825Z,76.07
2022-09-30T18:27:53.631Z,76.40
2022-09-30T18:30:21.788Z,76.32
2022-09-30T18:32:52.701Z,76.59
2022-09-30T18:35:22.742Z,76.67
2022-09-30T18:37:51.552Z,76.52
2022-09-30T18:40:21.581Z,77.01
2022-09-30T18:42:49.966Z,77.15
2022-09-30T18:45:18.548Z,77.46
2022-09-30T18:47:46.589Z,77.34
2022-09-30T18:50:17.988Z,77.40
2022-09-30T18:52:46.078Z,77.43
2022-09-30T18:55:14.152Z,77.27
2022-09-30T18:57:42.236Z,77.26
2022-09-30T19:00:11.436Z,77.50
2022-09-30T19:02:40.762Z,77.33
2022-09-30T19:05:09.396Z,77.01
2022-09-30T19:07:39.492Z,77.62
2022-09-30T19:10:09.165Z,77.49
2022-09-30T19:12:38.758Z,77.32
2022-09-30T19:15:08.991Z,77.42
2022-09-30T19:17:37.530Z,77.50
2022-09-30T19:20:06.905Z,77.39
2022-09-30T19:22:37.258Z,78.11
2022-09-30T19:25:07.878Z,77.80
2022-09-30T19:27:37.720Z,78.40
2022-09-30T19:30:06.820Z,78.63
2022-09-30T19:32:35.109Z,79.11
2022-09-30T19:35:06.458Z,78.91
2022-09-30T19:37:35.386Z,79.28
2022-09-30T19:40:19.030Z,78.85
2022-09-30T19:42:49.644Z,79.32
2022-09-30T19:45:22.794Z,79.59
2022-09-30T19:47:52.590Z,79.17
2022-09-30T19:50:20.616Z,79.25
2022-09-30T19:52:57.080Z,79.12
2022-09-30T19:55:27.597Z,78.84
2022-09-30T19:57:55.739Z,79.32
2022-09-30T20:00:24.154Z,79.31
2022-09-30T20:02:52.663Z,79.73
2022-09-30T20:05:21.562Z,79.78
2022-09-30T20:07:51.250Z,79.58
2022-09-30T20:10:19.785Z,79.86
2022-09-30T20:12:49.143Z,79.74
2022-09-30T20:15:35.007Z,80.00
2022-09-30T20:18:03.020Z,80.95
2022-09-30T20:20:37.281Z,80.93
2022-09-30T20:23:05.476Z,81.23
2022-09-30T20:25:35.295Z,81.26
2022-09-30T20:28:05.483Z,81.29
2022-09-30T20:30:34.070Z,81.45
2022-09-30T20:33:02.505Z,81.22
2022-09-30T20:35:30.546Z,80.87
2022-09-30T20:37:58.730Z,80.93
2022-09-30T20:40:26.910Z,80.60
2022-09-30T20:43:01.449Z,80.78
2022-09-30T20:45:31.496Z,81.65
2022-09-30T20:47:59.624Z,81.59
2022-09-30T20:50:36.419Z,81.27
2022-09-30T20:53:06.428Z,81.08
2022-09-30T20:55:35.982Z,81.36
2022-09-30T20:58:04.235Z,81.26
2022-09-30T21:00:34.488Z,81.32
2022-09-30T21:03:02.529Z,81.97
2022-09-30T21:05:31.943Z,81.79
2022-09-30T21:08:00.578Z,81.79
2022-09-30T21:10:29.743Z,81.68
2022-09-30T21:12:59.037Z,81.45
2022-09-30T21:15:27.754Z,81.56
2022-09-30T21:17:57.278Z,81.12
2022-09-30T21:20:25.544Z,81.50
2022-09-30T21:22:53.847Z,81.61
2022-09-30T21:25:21.996Z,81.59
2022-09-30T21:27:50.126Z,81.82
2022-09-30T21:30:19.263Z,81.88
2022-09-30T21:32:48.825Z,81.69
2022-09-30T21:35:18.352Z,81.67
2022-09-30T21:37:49.594Z,81.37
2022-09-30T21:40:18.996Z,81.61
2022-09-30T21:42:46.958Z,81.82
2022-09-30T21:45:15.089Z,81.74
2022-09-30T21:47:43.082Z,81.83
2022-09-30T21:50:11.239Z,81.80
2022-09-30T21:52:40.599Z,81.69
2022-09-30T21:55:11.826Z,81.71
2022-09-30T21:57:40.112Z,81.49
2022-09-30T22:00:09.045Z,81.41
2022-09-30T22:02:41.943Z,81.48
2022-09-30T22:05:10.325Z,82.05
2022-09-30T22:07:38.834Z,82.12
2022-09-30T22:10:09.607Z,81.99
2022-09-30T22:12:38.234Z,82.05
2022-09-30T22:15:07.147Z,82.01
2022-09-30T22:17:35.185Z,81.95
2022-09-30T22:20:03.256Z,82.02
2022-09-30T22:22:31.273Z,81.95
2022-09-30T22:24:59.273Z,82.02
2022-09-30T22:27:28.700Z,81.90
2022-09-30T22:29:56.661Z,81.99
2022-09-30T22:32:24.816Z,81.88
2022-09-30T22:35:10.439Z,81.68
2022-09-30T22:38:01.177Z,81.73
2022-09-30T22:40:29.221Z,81.73
2022-09-30T22:42:58.530Z,81.91
2022-09-30T22:45:26.529Z,81.85
2022-09-30T22:47:56.804Z,82.14
2022-09-30T22:50:26.072Z,82.03
2022-09-30T22:52:54.042Z,82.18
2022-09-30T22:55:22.255Z,82.01
2022-09-30T22:57:50.213Z,82.86
2022-09-30T23:00:19.568Z,82.81
2022-09-30T23:02:48.326Z,82.74
2022-09-30T23:05:16.583Z,82.55
2022-09-30T23:07:44.599Z,82.33
2022-09-30T23:10:12.684Z,82.11
2022-09-30T23:12:41.006Z,81.84
2022-09-30T23:15:09.586Z,82.27
2022-09-30T23:17:39.005Z,81.73
2022-09-30T23:20:08.565Z,81.82
2022-09-30T23:22:36.526Z,81.91
2022-09-30T23:25:04.817Z,81.56
2022-09-30T23:27:58.277Z,81.55
2022-09-30T23:30:26.832Z,81.63
2022-09-30T23:32:56.257Z,81.64
2022-09-30T23:35:24.248Z,82.15
2022-09-30T23:37:52.951Z,82.14
2022-09-30T23:40:20.963Z,82.29
2022-09-30T23:42:50.413Z,82.50
2022-09-30T23:45:18.368Z,82.65
2022-09-30T23:47:48.363Z,82.68
2022-09-30T23:50:17.815Z,82.78
2022-09-30T23:52:45.769Z,82.86
2022-09-30T23:55:16.839Z,83.42
2022-09-30T23:57:46.866Z,83.31
